Dover Air Force Base
KDOV : now visible

Airfield :











YOU CAN JOIN US ON...

 
LOGIN :

Register | Disclaimer

   EN    FR    IT 

 









Legend :    VFR   Marginal VFR   IFR   Intensive IFR   Very Intensive IFR
Visi :
Ceiling :
>= 8 km
>= 3000ft
5 to 8 km
1000 to 3000 ft
1500m to 5 km
500 to 1000 ft
800 to 1500m
200 to 500 ft
< 800m
< 200 ft
Symbols :   Thunderstorms  Fog  Heavy snow  Heavy precipitations  Wind > 20 kt







- Airport Elevation : 24 ft


KDOV - Dover Air Force Base

CURRENT METAR :
  • 211956Z AUTO 11006KT 10SM CLR 27/15 A3018 RMK AO2 SLP223 T02720149 $

EXPIRED METARs :
  • 211856Z AUTO 11007KT 10SM CLR 27/15 A3019 RMK AO2 SLP226 T02730150 $

TAF TAF KDOV
Valid from the 21 at 16:00 until the 22 at 22:00 UTC


211600Z 2116/2222 22006KT 9999 SKC QNH3016INS
BECMG 2214/2215 18005KT 9999 SCT060 QNH3011INS TX28/2119Z TN18/2211Z
No reported NOTAMs for that airfield.



MET'MAP, your aeronautical weather chart ! - Copyright ORBIFLY December 2007 - Disclaimer

ORBIFLY MET'MAP TEAM :

Programming & Development : Alexandra Zaïnal
Concept & Development : Baudouin d'Aumeries
Co-Development & Prog : Marc-Olivier Méhu
Technical & hardware support : Manuel Goepfert

Contact : metmap@orbifly.com




SOURCES & CREDITS :

   NOAA       Earth
Advisory